createdAt,value
2018-09-21T00:00:31.848Z,18.80
2018-09-21T00:10:35.130Z,18.60
2018-09-21T00:20:38.369Z,18.60
2018-09-21T00:30:42.431Z,18.30
2018-09-21T00:40:45.667Z,18.30
2018-09-21T00:50:48.922Z,18.30
2018-09-21T01:00:52.742Z,18.30
2018-09-21T01:10:56.012Z,18.20
2018-09-21T01:20:59.253Z,18.10
2018-09-21T01:31:02.580Z,18.10
2018-09-21T01:41:05.845Z,17.90
2018-09-21T01:51:09.093Z,17.80
2018-09-21T02:01:12.412Z,17.60
2018-09-21T02:11:15.650Z,17.60
2018-09-21T02:21:18.901Z,17.50
2018-09-21T02:31:22.202Z,17.40
2018-09-21T02:41:25.455Z,17.30
2018-09-21T02:51:28.661Z,17.30
2018-09-21T03:01:31.895Z,17.20
2018-09-21T03:11:35.195Z,17.00
2018-09-21T03:21:38.472Z,16.90
2018-09-21T03:31:41.726Z,16.80
2018-09-21T03:41:44.962Z,16.60
2018-09-21T03:51:48.202Z,16.60
2018-09-21T04:01:51.474Z,16.40
2018-09-21T04:11:54.700Z,16.60
2018-09-21T04:21:57.951Z,16.50
2018-09-21T04:32:01.331Z,16.60
2018-09-21T04:42:04.545Z,16.70
2018-09-21T04:52:07.854Z,16.70
2018-09-21T05:02:11.116Z,16.70
2018-09-21T05:12:16.609Z,16.60
2018-09-21T05:22:19.869Z,16.70
2018-09-21T05:32:23.205Z,16.70
2018-09-21T05:42:26.458Z,16.60
2018-09-21T05:52:29.753Z,16.80
2018-09-21T06:02:33.134Z,17.00
2018-09-21T06:12:37.110Z,17.10
2018-09-21T06:22:45.103Z,17.00
2018-09-21T06:32:43.699Z,17.50
2018-09-21T06:42:47.075Z,17.60
2018-09-21T06:52:50.417Z,17.90
2018-09-21T07:02:53.774Z,18.20
2018-09-21T07:12:57.125Z,18.70
2018-09-21T07:23:00.513Z,18.90
2018-09-21T07:33:04.064Z,19.10
2018-09-21T07:43:07.521Z,19.90
2018-09-21T07:53:10.784Z,20.80
2018-09-21T08:03:14.059Z,21.40
2018-09-21T08:13:17.334Z,21.60
2018-09-21T08:23:20.626Z,22.00
2018-09-21T08:33:23.880Z,22.60
2018-09-21T08:43:27.125Z,23.10
2018-09-21T08:53:30.388Z,23.30
2018-09-21T09:03:33.673Z,23.60
2018-09-21T09:13:37.689Z,23.80
2018-09-21T09:23:41.007Z,24.10
2018-09-21T09:33:44.252Z,24.50
2018-09-21T09:43:47.493Z,24.70
2018-09-21T09:53:50.771Z,24.90
2018-09-21T10:03:54.002Z,25.10
2018-09-21T10:13:57.233Z,25.30
2018-09-21T10:24:00.575Z,25.30
2018-09-21T10:34:03.781Z,25.50
2018-09-21T10:44:07.078Z,25.60
2018-09-21T10:54:11.218Z,25.60
2018-09-21T11:04:14.446Z,25.50
2018-09-21T11:14:17.712Z,25.50
2018-09-21T11:24:21.031Z,25.50
2018-09-21T11:34:24.469Z,25.60
2018-09-21T11:44:28.023Z,25.70
2018-09-21T11:54:31.361Z,25.90
2018-09-21T12:04:34.638Z,25.70
2018-09-21T12:14:37.869Z,25.40
2018-09-21T12:24:41.201Z,25.30
2018-09-21T12:34:44.502Z,25.10
2018-09-21T12:44:47.878Z,25.20
2018-09-21T12:54:51.160Z,25.20
2018-09-21T13:04:54.461Z,25.30
2018-09-21T13:14:57.706Z,25.30
2018-09-21T13:25:01.011Z,25.30
2018-09-21T13:35:04.261Z,25.30
2018-09-21T13:45:07.515Z,25.10
2018-09-21T13:55:10.761Z,24.90
2018-09-21T14:05:14.026Z,24.80
2018-09-21T14:15:17.287Z,24.70
2018-09-21T14:25:20.558Z,24.60
2018-09-21T14:35:23.850Z,24.70
2018-09-21T14:45:27.145Z,24.70
2018-09-21T14:55:30.499Z,24.80
2018-09-21T15:05:33.753Z,24.70
2018-09-21T15:15:37.029Z,22.70
2018-09-21T15:25:40.343Z,19.20
2018-09-21T15:35:43.642Z,16.70
2018-09-21T15:45:46.973Z,15.70
2018-09-21T15:55:50.214Z,16.30
2018-09-21T16:05:53.531Z,16.60
2018-09-21T16:15:56.689Z,16.80
2018-09-21T16:25:59.953Z,16.50
2018-09-21T16:36:03.489Z,16.80
2018-09-21T16:46:06.787Z,16.70
2018-09-21T16:56:10.027Z,16.50
2018-09-21T17:06:13.374Z,16.50
2018-09-21T17:16:16.638Z,16.60
2018-09-21T17:26:19.913Z,16.20
2018-09-21T17:36:23.254Z,16.10
2018-09-21T17:46:26.510Z,16.20
2018-09-21T17:56:29.757Z,16.20
2018-09-21T18:06:33.037Z,16.30
2018-09-21T18:16:36.261Z,16.20
2018-09-21T18:26:39.522Z,16.10
2018-09-21T18:36:42.779Z,16.30
2018-09-21T18:46:46.071Z,16.30
2018-09-21T18:56:49.286Z,16.20
2018-09-21T19:06:52.563Z,16.30
2018-09-21T19:16:55.837Z,16.40
2018-09-21T19:26:59.146Z,16.50
2018-09-21T19:37:02.486Z,16.30
2018-09-21T19:47:05.781Z,16.30
2018-09-21T19:57:09.053Z,16.40
2018-09-21T20:07:12.363Z,16.30
2018-09-21T20:17:15.598Z,16.20
2018-09-21T20:27:18.853Z,16.20
2018-09-21T20:37:22.144Z,16.10
2018-09-21T20:47:25.401Z,16.20
2018-09-21T20:57:28.652Z,15.90
2018-09-21T21:07:31.880Z,16.10
2018-09-21T21:17:35.149Z,16.00
2018-09-21T21:27:38.468Z,15.90
2018-09-21T21:37:42.083Z,16.00
2018-09-21T21:47:45.351Z,15.80
2018-09-21T21:57:48.584Z,15.90
2018-09-21T22:07:51.925Z,15.90
2018-09-21T22:17:55.131Z,15.90
2018-09-21T22:27:58.367Z,15.90
2018-09-21T22:38:01.673Z,15.90
2018-09-21T22:48:05.029Z,15.80
2018-09-21T22:58:08.262Z,15.80
2018-09-21T23:08:11.841Z,15.70
2018-09-21T23:18:15.194Z,15.50
2018-09-21T23:28:18.418Z,15.60
2018-09-21T23:38:22.302Z,15.50
2018-09-21T23:48:25.616Z,15.50
2018-09-21T23:58:28.885Z,15.30
